createdAt,value
2022-09-25T00:00:30.402Z,100777.66
2022-09-25T00:03:40.966Z,100755.44
2022-09-25T00:06:49.540Z,100837.91
2022-09-25T00:09:53.822Z,100861.59
2022-09-25T00:13:28.267Z,100792.22
2022-09-25T00:16:49.458Z,100832.97
2022-09-25T00:20:16.113Z,100816.09
2022-09-25T00:23:23.841Z,100773.06
2022-09-25T00:26:30.339Z,100836.41
2022-09-25T00:29:34.898Z,100789.91
2022-09-25T00:32:50.778Z,100795.16
2022-09-25T00:37:23.141Z,100798.53
2022-09-25T00:40:22.454Z,100741.75
2022-09-25T00:44:02.267Z,100754.03
2022-09-25T00:47:07.188Z,100812.34
2022-09-25T00:50:29.063Z,100864.53
2022-09-25T00:54:20.762Z,100829.81
2022-09-25T00:57:42.103Z,100774.16
2022-09-25T01:01:10.199Z,100813.28
2022-09-25T01:08:14.157Z,100863.75
2022-09-25T01:15:44.819Z,100849.09
2022-09-25T01:20:05.203Z,100873.41
2022-09-25T01:23:24.277Z,100861.13
2022-09-25T01:27:29.287Z,100816.97
2022-09-25T01:30:47.004Z,100829.22
2022-09-25T01:34:39.092Z,100793.19
2022-09-25T01:43:00.655Z,100851.78
2022-09-25T01:46:59.613Z,100799.00
2022-09-25T01:55:31.333Z,100856.53
2022-09-25T01:59:50.323Z,100807.56
2022-09-25T02:03:00.558Z,100730.59
2022-09-25T02:10:25.807Z,100795.22
2022-09-25T02:13:45.487Z,100793.50
2022-09-25T02:17:20.066Z,100804.97
2022-09-25T02:24:17.560Z,100794.53
2022-09-25T02:28:28.798Z,100766.03
2022-09-25T02:32:10.577Z,100771.94
2022-09-25T02:35:40.880Z,100779.75
2022-09-25T02:39:17.132Z,100818.81
2022-09-25T02:43:17.827Z,100780.69
2022-09-25T02:47:06.379Z,100839.44
2022-09-25T02:50:32.085Z,100811.59
2022-09-25T02:53:43.879Z,100800.03
2022-09-25T02:57:01.419Z,100755.22
2022-09-25T03:00:23.751Z,100771.44
2022-09-25T03:03:42.818Z,100750.66
2022-09-25T03:06:52.441Z,100794.91
2022-09-25T03:10:01.581Z,100753.00
2022-09-25T03:13:42.132Z,100799.97
2022-09-25T03:17:23.243Z,100759.59
2022-09-25T03:21:00.741Z,100756.44
2022-09-25T03:25:28.414Z,100759.66
2022-09-25T03:28:38.961Z,100741.06
2022-09-25T03:32:20.017Z,100753.91
2022-09-25T03:35:28.631Z,100804.97
2022-09-25T03:42:28.014Z,100718.75
2022-09-25T03:46:39.238Z,100797.94
2022-09-25T03:49:49.369Z,100720.88
2022-09-25T03:53:29.407Z,100756.09
2022-09-25T03:56:47.827Z,100640.13
2022-09-25T04:00:02.107Z,100701.63
2022-09-25T04:03:24.755Z,100722.41
2022-09-25T04:08:50.779Z,100683.41
2022-09-25T04:11:32.003Z,100762.50
2022-09-25T04:14:43.050Z,100706.31
2022-09-25T04:18:06.810Z,100767.13
2022-09-25T04:21:15.865Z,100698.25
2022-09-25T04:24:59.872Z,100734.94
2022-09-25T04:28:28.304Z,100750.25
2022-09-25T04:32:03.888Z,100722.75
2022-09-25T04:35:36.926Z,100745.13
2022-09-25T04:39:07.426Z,100663.78
2022-09-25T04:47:27.981Z,100598.34
2022-09-25T04:51:05.278Z,100663.91
2022-09-25T04:55:16.983Z,100625.59
2022-09-25T04:59:37.525Z,100609.13
2022-09-25T05:07:30.921Z,100667.84
2022-09-25T05:11:59.961Z,100647.94
2022-09-25T05:15:16.117Z,100596.44
2022-09-25T05:18:54.675Z,100657.84
2022-09-25T05:22:05.746Z,100617.72
2022-09-25T05:25:19.686Z,100670.16
2022-09-25T05:28:27.876Z,100655.16
2022-09-25T05:31:33.506Z,100662.34
2022-09-25T05:35:53.817Z,100613.19
2022-09-25T05:38:27.684Z,100699.88
2022-09-25T05:41:46.763Z,100672.06
2022-09-25T05:45:21.974Z,100663.56
2022-09-25T05:48:32.170Z,100668.81
2022-09-25T05:51:36.749Z,100606.28
2022-09-25T05:54:41.933Z,100631.75
2022-09-25T05:57:48.796Z,100593.38
2022-09-25T06:01:22.499Z,100699.13
2022-09-25T06:05:01.213Z,100610.28
2022-09-25T06:08:28.042Z,100633.09
2022-09-25T06:11:40.151Z,100627.91
2022-09-25T06:14:50.554Z,100602.00
2022-09-25T06:17:58.087Z,100652.34
2022-09-25T06:21:06.171Z,100662.03
2022-09-25T06:24:14.227Z,100617.22
2022-09-25T06:27:21.184Z,100628.69
2022-09-25T06:30:40.726Z,100619.63
2022-09-25T06:33:47.067Z,100607.81
2022-09-25T06:36:52.251Z,100602.41
2022-09-25T06:39:58.063Z,100655.88
2022-09-25T06:43:34.476Z,100626.94
2022-09-25T06:47:26.875Z,100609.63
2022-09-25T06:50:58.270Z,100624.84
2022-09-25T06:54:31.755Z,100664.69
2022-09-25T06:58:05.511Z,100630.13
2022-09-25T07:01:29.361Z,100565.09
2022-09-25T07:04:41.584Z,100590.91
2022-09-25T07:07:55.717Z,100622.94
2022-09-25T07:11:15.078Z,100556.31
2022-09-25T07:18:13.400Z,100540.06
2022-09-25T07:21:33.071Z,100577.13
2022-09-25T07:24:43.371Z,100619.94
2022-09-25T07:27:51.003Z,100567.75
2022-09-25T07:31:23.358Z,100583.22
2022-09-25T07:34:53.141Z,100545.16
2022-09-25T07:38:40.310Z,100579.69
2022-09-25T07:41:28.607Z,100645.13
2022-09-25T07:44:56.131Z,100574.06
2022-09-25T07:48:08.151Z,100571.94
2022-09-25T07:51:17.358Z,100574.13
2022-09-25T07:54:22.304Z,100579.41
2022-09-25T07:57:28.378Z,100634.63
2022-09-25T08:00:40.395Z,100568.50
2022-09-25T08:03:52.392Z,100641.31
2022-09-25T08:07:04.222Z,100588.72
2022-09-25T08:10:09.918Z,100574.06
2022-09-25T08:13:23.677Z,100586.59
2022-09-25T08:16:37.712Z,100561.47
2022-09-25T08:19:45.292Z,100591.31
2022-09-25T08:23:35.907Z,100544.84
2022-09-25T08:27:05.313Z,100567.47
2022-09-25T08:34:42.294Z,100521.41
2022-09-25T08:38:15.372Z,100559.78
2022-09-25T08:41:53.248Z,100592.03
2022-09-25T08:45:35.451Z,100554.09
2022-09-25T08:49:06.938Z,100640.13
2022-09-25T08:52:19.514Z,100583.22
2022-09-25T08:56:09.795Z,100628.59
2022-09-25T08:59:44.801Z,100638.38
2022-09-25T09:02:58.493Z,100633.78
2022-09-25T09:06:07.282Z,100617.19
2022-09-25T09:09:25.392Z,100580.91
2022-09-25T09:12:34.730Z,100565.59
2022-09-25T09:15:45.674Z,100613.03
2022-09-25T09:18:58.921Z,100592.19
2022-09-25T09:22:15.515Z,100588.72
2022-09-25T09:25:29.959Z,100640.44
2022-09-25T09:29:12.189Z,100637.72
2022-09-25T09:32:37.829Z,100610.16
2022-09-25T09:36:13.499Z,100589.81
2022-09-25T09:39:25.010Z,100643.09
2022-09-25T09:42:38.904Z,100629.97
2022-09-25T09:46:00.463Z,100622.69
2022-09-25T09:49:27.097Z,100624.06
2022-09-25T09:52:44.886Z,100625.38
2022-09-25T09:55:54.581Z,100528.81
2022-09-25T09:59:08.929Z,100661.38
2022-09-25T10:02:35.011Z,100613.72
2022-09-25T10:05:51.515Z,100515.75
2022-09-25T10:08:56.345Z,100568.66
2022-09-25T10:12:13.562Z,100591.91
2022-09-25T10:15:34.136Z,100563.84
2022-09-25T10:18:53.333Z,100614.06
2022-09-25T10:22:13.564Z,100644.84
2022-09-25T10:25:59.574Z,100637.13
2022-09-25T10:29:24.741Z,100621.28
2022-09-25T10:32:37.008Z,100564.88
2022-09-25T10:35:57.583Z,100650.63
2022-09-25T10:39:39.106Z,100564.91
2022-09-25T10:42:48.368Z,100623.31
2022-09-25T10:46:49.734Z,100611.13
2022-09-25T10:50:17.906Z,100592.09
2022-09-25T10:53:31.114Z,100493.31
2022-09-25T10:56:39.095Z,100570.31
2022-09-25T10:59:54.265Z,100612.97
2022-09-25T11:03:05.052Z,100650.59
2022-09-25T11:06:36.470Z,100583.06
2022-09-25T11:10:00.228Z,100647.91
2022-09-25T11:13:11.028Z,100603.25
2022-09-25T11:16:29.900Z,100613.00
2022-09-25T11:19:52.242Z,100493.97
2022-09-25T11:23:13.585Z,100649.53
2022-09-25T11:26:32.431Z,100601.09
2022-09-25T11:29:48.604Z,100611.63
2022-09-25T11:33:30.929Z,100623.44
2022-09-25T11:36:47.635Z,100510.44
2022-09-25T11:40:49.815Z,100553.59
2022-09-25T11:44:10.872Z,100614.72
2022-09-25T11:47:43.532Z,100637.56
2022-09-25T11:51:00.426Z,100571.59
2022-09-25T11:54:57.022Z,100573.78
2022-09-25T11:58:05.597Z,100640.41
2022-09-25T12:01:35.620Z,100593.94
2022-09-25T12:05:14.228Z,100640.41
2022-09-25T12:08:54.312Z,100634.88
2022-09-25T12:12:25.821Z,100596.25
2022-09-25T12:15:52.546Z,100633.50
2022-09-25T12:19:29.644Z,100630.66
2022-09-25T12:26:19.257Z,100550.09
2022-09-25T12:29:56.364Z,100618.25
2022-09-25T12:51:52.183Z,100618.84
2022-09-25T12:55:22.172Z,100610.13
2022-09-25T12:58:58.333Z,100609.78
2022-09-25T13:02:12.970Z,100559.16
2022-09-25T13:05:22.293Z,100612.84
2022-09-25T13:08:35.750Z,100624.78
2022-09-25T13:11:51.261Z,100621.44
2022-09-25T13:15:18.538Z,100619.03
2022-09-25T13:18:26.306Z,100616.91
2022-09-25T13:21:38.018Z,100618.97
2022-09-25T13:25:16.507Z,100610.59
2022-09-25T13:28:27.489Z,100593.81
2022-09-25T13:31:37.954Z,100617.41
2022-09-25T13:34:43.604Z,100627.44
2022-09-25T13:37:50.272Z,100618.50
2022-09-25T13:40:54.790Z,100616.16
2022-09-25T13:44:38.694Z,100618.13
2022-09-25T13:47:55.787Z,100593.66
2022-09-25T13:51:24.505Z,100620.03
2022-09-25T13:54:29.516Z,100616.69
2022-09-25T13:57:59.305Z,100631.44
2022-09-25T14:01:04.174Z,100626.63
2022-09-25T14:04:28.043Z,100636.59
2022-09-25T14:07:32.746Z,100612.06
2022-09-25T14:10:37.133Z,100625.59
2022-09-25T14:13:46.572Z,100616.91
2022-09-25T14:16:54.122Z,100623.19
2022-09-25T14:20:00.618Z,100622.72
2022-09-25T14:23:24.892Z,100624.16
2022-09-25T14:26:30.332Z,100612.00
2022-09-25T14:29:41.465Z,100607.59
2022-09-25T14:33:07.531Z,100605.50
2022-09-25T14:36:52.744Z,100606.13
2022-09-25T14:40:19.739Z,100610.03
2022-09-25T14:46:44.016Z,100607.84
2022-09-25T14:49:52.636Z,100614.56
2022-09-25T14:53:01.542Z,100591.97
2022-09-25T14:56:12.875Z,100593.00
2022-09-25T14:59:35.073Z,100592.03
2022-09-25T15:02:42.987Z,100580.72
2022-09-25T15:05:51.437Z,100584.53
2022-09-25T15:08:56.777Z,100593.72
2022-09-25T15:12:01.420Z,100597.56
2022-09-25T15:15:09.788Z,100581.38
2022-09-25T15:18:16.606Z,100580.53
2022-09-25T15:21:31.777Z,100595.47
2022-09-25T15:24:37.130Z,100588.25
2022-09-25T15:27:43.592Z,100598.13
2022-09-25T15:30:59.752Z,100584.84
2022-09-25T15:34:17.179Z,100540.53
2022-09-25T15:37:30.006Z,100594.72
2022-09-25T15:40:35.576Z,100604.16
2022-09-25T15:43:40.191Z,100586.09
2022-09-25T15:46:48.230Z,100598.31
2022-09-25T15:49:53.070Z,100615.88
2022-09-25T15:53:01.089Z,100597.38
2022-09-25T15:56:26.187Z,100589.53
2022-09-25T16:00:08.557Z,100600.16
2022-09-25T16:03:37.062Z,100602.13
2022-09-25T16:06:46.684Z,100601.38
2022-09-25T16:09:56.838Z,100593.78
2022-09-25T16:13:02.425Z,100597.19
2022-09-25T16:16:17.615Z,100597.91
2022-09-25T16:19:28.637Z,100589.09
2022-09-25T16:22:40.716Z,100582.47
2022-09-25T16:25:48.956Z,100585.38
2022-09-25T16:29:05.870Z,100568.19
2022-09-25T16:32:20.678Z,100556.47
2022-09-25T16:36:05.227Z,100572.63
2022-09-25T16:39:08.938Z,100592.81
2022-09-25T16:42:43.151Z,100604.25
2022-09-25T16:46:21.864Z,100599.38
2022-09-25T16:49:29.360Z,100596.00
2022-09-25T16:52:35.883Z,100597.75
2022-09-25T16:55:54.049Z,100584.28
2022-09-25T16:59:02.142Z,100584.97
2022-09-25T17:02:23.898Z,100556.13
2022-09-25T17:05:32.015Z,100591.78
2022-09-25T17:08:36.631Z,100584.97
2022-09-25T17:11:45.913Z,100580.34
2022-09-25T17:14:51.822Z,100592.94
2022-09-25T17:17:56.783Z,100587.25
2022-09-25T17:21:11.240Z,100590.78
2022-09-25T17:24:17.041Z,100565.41
2022-09-25T17:27:21.597Z,100566.03
2022-09-25T17:30:28.273Z,100567.34
2022-09-25T17:33:33.209Z,100582.19
2022-09-25T17:36:40.172Z,100589.22
2022-09-25T17:39:44.616Z,100559.25
2022-09-25T17:42:49.968Z,100574.03
2022-09-25T17:45:57.909Z,100574.97
2022-09-25T17:49:04.339Z,100561.63
2022-09-25T17:52:12.344Z,100562.53
2022-09-25T17:55:28.271Z,100574.47
2022-09-25T17:58:35.216Z,100511.75
2022-09-25T18:01:40.291Z,100552.19
2022-09-25T18:04:47.504Z,100553.25
2022-09-25T18:07:52.381Z,100554.97
2022-09-25T18:10:59.605Z,100576.25
2022-09-25T18:14:04.271Z,100569.00
2022-09-25T18:17:08.742Z,100575.78
2022-09-25T18:20:33.195Z,100571.13
2022-09-25T18:23:39.255Z,100562.53
2022-09-25T18:26:46.144Z,100574.16
2022-09-25T18:29:50.746Z,100563.09
2022-09-25T18:32:55.364Z,100558.59
2022-09-25T18:36:00.919Z,100558.44
2022-09-25T18:39:06.025Z,100567.50
2022-09-25T18:42:10.369Z,100572.47
2022-09-25T18:45:15.714Z,100566.06
2022-09-25T18:48:20.229Z,100547.31
2022-09-25T18:51:25.247Z,100570.13
2022-09-25T18:54:32.063Z,100574.72
2022-09-25T18:57:40.738Z,100561.31
2022-09-25T19:00:45.304Z,100576.75
2022-09-25T19:03:55.479Z,100589.53
2022-09-25T19:07:00.352Z,100568.00
2022-09-25T19:10:10.035Z,100577.41
2022-09-25T19:13:19.267Z,100583.66
2022-09-25T19:16:24.526Z,100571.69
2022-09-25T19:19:31.074Z,100571.81
2022-09-25T19:22:36.705Z,100576.31
2022-09-25T19:25:41.224Z,100589.03
2022-09-25T19:28:45.566Z,100572.72
2022-09-25T19:31:49.964Z,100568.38
2022-09-25T19:34:55.166Z,100563.47
2022-09-25T19:38:00.272Z,100570.97
2022-09-25T19:41:12.127Z,100575.31
2022-09-25T19:44:16.622Z,100578.06
2022-09-25T19:47:21.117Z,100558.13
2022-09-25T19:50:25.384Z,100560.00
2022-09-25T19:53:29.792Z,100574.03
2022-09-25T19:56:35.028Z,100524.59
2022-09-25T19:59:39.547Z,100555.81
2022-09-25T20:02:48.469Z,100556.38
2022-09-25T20:05:53.027Z,100566.78
2022-09-25T20:09:01.945Z,100573.91
2022-09-25T20:12:06.708Z,100572.56
2022-09-25T20:15:14.464Z,100562.63
2022-09-25T20:18:19.726Z,100578.56
2022-09-25T20:21:28.422Z,100590.94
2022-09-25T20:24:35.004Z,100578.38
2022-09-25T20:27:42.514Z,100586.66
2022-09-25T20:30:46.914Z,100578.72
2022-09-25T20:33:51.377Z,100556.81
2022-09-25T20:36:59.156Z,100583.88
2022-09-25T20:40:05.646Z,100581.63
2022-09-25T20:43:10.418Z,100589.59
2022-09-25T20:46:15.672Z,100585.00
2022-09-25T20:49:22.339Z,100583.50
2022-09-25T20:52:34.452Z,100595.09
2022-09-25T20:55:39.520Z,100575.03
2022-09-25T20:58:50.806Z,100592.34
2022-09-25T21:02:00.905Z,100582.16
2022-09-25T21:05:08.928Z,100595.34
2022-09-25T21:08:14.294Z,100608.22
2022-09-25T21:11:18.931Z,100597.59
2022-09-25T21:14:28.145Z,100606.50
2022-09-25T21:17:33.461Z,100590.63
